Time;durP1;ratioP1;P1;durP2;ratioP2;P2;SDS_P1;SDS_P2;PMS_P1;PMS_P2;Temp;Humidity;BMP_temperature;BMP_pressure;BME280_temperature;BME280_humidity;BME280_pressure;Samples;Min_cycle;Max_cycle;Signal;HPM_P1;HPM_P2
2022/03/25 00:01:25;;;;;;;0.70;0.70;;;;;;;25.32;16.25;100867.09;5079264;28;20024;-74
2022/03/25 00:03:51;;;;;;;0.75;0.75;;;;;;;25.29;16.38;100863.81;5079293;28;20467;-75
2022/03/25 00:06:17;;;;;;;0.80;0.80;;;;;;;25.30;16.48;100864.63;5078875;28;20074;-74
2022/03/25 00:08:43;;;;;;;0.80;0.80;;;;;;;25.30;16.59;100860.00;5079046;28;20467;-75
2022/03/25 00:11:08;;;;;;;0.60;0.60;;;;;;;25.31;16.53;100860.81;5079577;28;20044;-75
2022/03/25 00:13:33;;;;;;;0.60;0.60;;;;;;;25.31;16.27;100863.56;5078886;28;20352;-74
2022/03/25 00:15:59;;;;;;;0.70;0.70;;;;;;;25.28;16.33;100862.19;5079069;28;20110;-75
2022/03/25 00:18:24;;;;;;;0.80;0.80;;;;;;;25.30;16.34;100848.22;5044513;28;20028;-74
2022/03/25 00:20:50;;;;;;;0.60;0.60;;;;;;;25.31;16.59;100847.13;5079070;28;20052;-74
2022/03/25 00:23:16;;;;;;;0.77;0.77;;;;;;;25.30;16.38;100842.75;5079012;28;20035;-73
2022/03/25 00:25:41;;;;;;;0.60;0.60;;;;;;;25.30;16.47;100843.59;5078593;28;20479;-73
2022/03/25 00:28:07;;;;;;;0.75;0.75;;;;;;;25.30;16.46;100849.06;5078903;28;20131;-73
2022/03/25 00:30:35;;;;;;;0.60;0.60;;;;;;;25.29;16.38;100852.88;5078406;28;20043;-73
2022/03/25 00:33:01;;;;;;;0.98;0.85;;;;;;;25.24;16.42;100833.72;5078606;28;20035;-73
2022/03/25 00:35:28;;;;;;;0.63;0.60;;;;;;;25.28;16.61;100840.31;5078546;28;20028;-73
2022/03/25 00:37:53;;;;;;;0.70;0.70;;;;;;;25.28;16.60;100840.31;5078637;28;20027;-73
2022/03/25 00:40:18;;;;;;;0.60;0.60;;;;;;;25.30;16.13;100840.84;5078515;28;20033;-73
2022/03/25 00:42:44;;;;;;;0.60;0.60;;;;;;;25.28;16.51;100834.84;5078322;28;20585;-73
2022/03/25 00:45:10;;;;;;;0.60;0.60;;;;;;;25.29;16.37;100836.47;5078297;28;20427;-73
2022/03/25 00:47:38;;;;;;;0.60;0.60;;;;;;;25.26;16.62;100826.06;5078495;28;20024;-72
2022/03/25 00:50:04;;;;;;;0.70;0.70;;;;;;;25.26;16.74;100831.53;5060255;28;20128;-73
2022/03/25 00:52:29;;;;;;;0.63;0.63;;;;;;;25.26;16.42;100820.59;5078095;28;20024;-74
2022/03/25 00:54:55;;;;;;;0.63;0.63;;;;;;;25.28;16.61;100812.97;5077898;28;20098;-72
2022/03/25 00:57:20;;;;;;;0.60;0.60;;;;;;;25.26;16.52;100815.13;5077783;28;20024;-73
2022/03/25 00:59:46;;;;;;;0.70;0.70;;;;;;;25.29;16.40;100814.59;5077945;28;20083;-73
2022/03/25 01:02:12;;;;;;;0.70;0.70;;;;;;;25.28;16.40;100810.22;5078110;28;20020;-73
2022/03/25 01:04:37;;;;;;;0.90;0.80;;;;;;;25.29;16.57;100808.31;5078294;28;20424;-73
2022/03/25 01:07:03;;;;;;;0.80;0.80;;;;;;;25.28;16.51;100802.03;5077610;28;20439;-73
2022/03/25 01:09:28;;;;;;;0.98;0.90;;;;;;;25.27;16.66;100796.81;5077275;28;20099;-74
2022/03/25 01:11:54;;;;;;;0.70;0.70;;;;;;;25.27;16.78;100799.56;5077952;28;20020;-76
2022/03/25 01:14:20;;;;;;;0.75;0.75;;;;;;;25.26;16.71;100800.66;5077642;28;20512;-75
2022/03/25 01:16:45;;;;;;;0.60;0.60;;;;;;;25.28;16.53;100802.03;5078397;28;20078;-75
2022/03/25 01:19:11;;;;;;;0.80;0.80;;;;;;;25.27;16.65;100800.38;5077932;28;20025;-75
2022/03/25 01:21:36;;;;;;;0.60;0.60;;;;;;;25.26;16.85;100793.25;5077689;28;20051;-76
2022/03/25 01:24:02;;;;;;;0.80;0.80;;;;;;;25.27;16.77;100792.16;5078124;28;20028;-75
2022/03/25 01:26:27;;;;;;;0.70;0.70;;;;;;;25.24;16.67;100783.66;5077786;28;20518;-74
2022/03/25 01:28:53;;;;;;;0.70;0.70;;;;;;;25.28;16.73;100796.56;5077982;28;20525;-74
2022/03/25 01:31:19;;;;;;;0.60;0.60;;;;;;;25.24;16.71;100800.06;5077605;28;20025;-74
2022/03/25 01:33:44;;;;;;;0.70;0.70;;;;;;;25.28;16.65;100802.03;5076298;28;20082;-75
2022/03/25 01:36:10;;;;;;;0.60;0.60;;;;;;;25.26;16.80;100798.72;5077002;28;20020;-75
2022/03/25 01:38:35;;;;;;;0.60;0.57;;;;;;;25.26;17.00;100798.72;5077035;28;20075;-75
2022/03/25 01:41:01;;;;;;;0.60;0.60;;;;;;;25.26;16.87;100793.25;5059875;28;20020;-74
2022/03/25 01:43:26;;;;;;;0.60;0.60;;;;;;;25.25;16.58;100799.84;5077717;28;20032;-74
2022/03/25 01:45:52;;;;;;;0.60;0.60;;;;;;;25.26;16.82;100797.91;5059923;28;20524;-74
2022/03/25 01:48:17;;;;;;;0.68;0.60;;;;;;;25.26;16.74;100793.25;5077115;28;20397;-74
2022/03/25 01:50:46;;;;;;;0.82;0.82;;;;;;;25.26;16.60;100795.97;5078197;28;20028;-75
2022/03/25 01:53:17;;;;;;;0.77;0.77;;;;;;;25.26;16.62;100795.97;5077743;28;20029;-74
2022/03/25 01:55:58;;;;;;;0.50;0.50;;;;;;;25.27;16.74;100785.88;5077806;28;20106;-74
2022/03/25 01:58:33;;;;;;;0.50;0.50;;;;;;;25.28;16.47;100779.28;5077528;28;20033;-74
2022/03/25 02:00:59;;;;;;;0.50;0.50;;;;;;;25.25;16.54;100775.22;5079913;28;20021;-73
2022/03/25 02:03:24;;;;;;;0.70;0.70;;;;;;;25.26;16.88;100771.38;5089343;28;20055;-74
2022/03/25 02:05:50;;;;;;;0.60;0.60;;;;;;;25.26;16.55;100776.84;5088887;28;20025;-74
2022/03/25 02:08:15;;;;;;;0.63;0.63;;;;;;;25.24;16.67;100765.31;5088563;28;20475;-74
2022/03/25 02:10:41;;;;;;;0.73;0.73;;;;;;;25.26;16.98;100765.91;5087176;28;20033;-73
2022/03/25 02:13:08;;;;;;;0.60;0.60;;;;;;;25.24;16.68;100765.31;5087693;28;20046;-74
2022/03/25 02:15:35;;;;;;;0.63;0.63;;;;;;;25.21;16.62;100760.41;5087310;28;20482;-74
2022/03/25 02:18:02;;;;;;;0.77;0.70;;;;;;;25.24;16.99;100768.06;5086526;28;20029;-74
2022/03/25 02:20:28;;;;;;;0.50;0.50;;;;;;;25.26;16.74;100759.63;5086274;28;20080;-73
2022/03/25 02:22:53;;;;;;;0.70;0.70;;;;;;;25.23;16.76;100750.03;5084514;28;20075;-74
2022/03/25 02:25:20;;;;;;;0.50;0.50;;;;;;;25.23;16.68;100749.19;5087330;28;20031;-73
2022/03/25 02:27:45;;;;;;;0.60;0.60;;;;;;;25.23;16.78;100743.72;5064845;28;20032;-73
2022/03/25 02:30:12;;;;;;;0.73;0.73;;;;;;;25.24;17.04;100734.44;5045771;28;20075;-73
2022/03/25 02:32:39;;;;;;;0.68;0.68;;;;;;;25.23;16.83;100741.81;5063223;28;20035;-73
2022/03/25 02:35:05;;;;;;;0.68;0.68;;;;;;;25.24;16.95;100748.09;5063870;28;20029;-73
2022/03/25 02:37:31;;;;;;;0.70;0.70;;;;;;;25.23;16.85;100744.56;5062526;28;20028;-74
2022/03/25 02:39:58;;;;;;;0.60;0.60;;;;;;;25.22;16.75;100753.03;5056638;28;20033;-74
2022/03/25 02:42:23;;;;;;;0.60;0.60;;;;;;;25.22;17.21;100748.38;5038453;28;20075;-73
2022/03/25 02:44:49;;;;;;;0.70;0.70;;;;;;;25.26;17.00;100754.16;5056876;28;20025;-74
2022/03/25 02:47:15;;;;;;;0.57;0.52;;;;;;;25.24;17.06;100748.09;5056430;28;20032;-73
2022/03/25 02:49:40;;;;;;;0.60;0.60;;;;;;;25.23;16.74;100750.03;5056573;28;20470;-72
2022/03/25 02:52:06;;;;;;;0.70;0.60;;;;;;;25.25;17.10;100747.00;5055835;28;20029;-72
2022/03/25 02:54:33;;;;;;;0.73;0.73;;;;;;;25.22;17.05;100742.09;5056149;28;20025;-72
2022/03/25 02:56:59;;;;;;;0.60;0.60;;;;;;;25.23;16.86;100739.09;5055614;28;20025;-74
2022/03/25 02:59:25;;;;;;;0.50;0.50;;;;;;;25.24;17.08;100731.69;5055827;28;20025;-74
2022/03/25 03:01:51;;;;;;;0.60;0.60;;;;;;;25.23;16.86;100728.16;5055320;28;20052;-75
2022/03/25 03:04:18;;;;;;;0.60;0.60;;;;;;;25.22;16.80;100723.75;5055958;28;20048;-74
2022/03/25 03:06:46;;;;;;;0.60;0.60;;;;;;;25.23;17.20;100725.41;5041949;28;20037;-74
2022/03/25 03:09:11;;;;;;;0.60;0.60;;;;;;;25.23;16.78;100716.38;5075242;28;20435;-74
2022/03/25 03:11:37;;;;;;;0.60;0.60;;;;;;;25.23;16.78;100717.22;5075156;28;20024;-75
2022/03/25 03:14:03;;;;;;;0.60;0.60;;;;;;;25.24;16.93;100724.28;5075854;28;20095;-75
2022/03/25 03:16:29;;;;;;;0.60;0.57;;;;;;;25.23;17.10;100713.63;5075432;28;20031;-74
2022/03/25 03:18:54;;;;;;;0.80;0.80;;;;;;;25.23;17.12;100717.22;5075378;28;20024;-75
2022/03/25 03:21:23;;;;;;;0.60;0.60;;;;;;;25.06;16.95;100690.19;5076429;28;20020;-74
2022/03/25 03:23:51;;;;;;;0.80;0.70;;;;;;;25.22;16.79;100712.81;5079456;28;20036;-74
2022/03/25 03:26:17;;;;;;;0.70;0.70;;;;;;;25.22;16.74;100710.09;5079890;28;20381;-74
2022/03/25 03:28:44;;;;;;;0.70;0.70;;;;;;;25.21;16.81;100702.97;5080050;28;20029;-74
2022/03/25 03:31:09;;;;;;;0.60;0.60;;;;;;;25.20;16.83;100692.31;5079443;28;20027;-75
2022/03/25 03:33:35;;;;;;;0.77;0.77;;;;;;;25.21;16.68;100686.56;5061464;28;20378;-75
2022/03/25 03:36:00;;;;;;;0.88;0.80;;;;;;;25.22;16.79;100687.41;5078849;28;20432;-75
2022/03/25 03:38:26;;;;;;;0.90;0.90;;;;;;;25.21;16.75;100670.16;5079291;28;20104;-75
2022/03/25 03:40:51;;;;;;;0.70;0.70;;;;;;;25.22;16.76;100679.19;5078887;28;20016;-76
2022/03/25 03:43:17;;;;;;;0.65;0.65;;;;;;;25.22;16.74;100665.53;5079208;28;20081;-74
2022/03/25 03:45:42;;;;;;;0.80;0.80;;;;;;;25.16;16.79;100653.75;5078855;28;20366;-75
2022/03/25 03:48:08;;;;;;;0.50;0.50;;;;;;;25.20;17.05;100659.47;5061196;28;20021;-75
2022/03/25 03:50:33;;;;;;;0.68;0.68;;;;;;;25.22;17.06;100660.84;5079888;28;20029;-75
2022/03/25 03:52:58;;;;;;;0.68;0.68;;;;;;;25.21;16.75;100653.75;5079271;28;20047;-74
2022/03/25 03:55:24;;;;;;;0.80;0.80;;;;;;;25.23;16.92;100657.03;5078869;28;20024;-73
2022/03/25 03:57:49;;;;;;;0.50;0.50;;;;;;;25.21;17.01;100658.41;5079052;28;20028;-73
2022/03/25 04:00:15;;;;;;;0.63;0.63;;;;;;;25.21;17.12;100659.22;5079361;28;20063;-74
2022/03/25 04:02:41;;;;;;;0.70;0.70;;;;;;;25.22;17.18;100649.91;5079131;28;20039;-73
2022/03/25 04:05:07;;;;;;;0.70;0.70;;;;;;;25.20;17.14;100645.81;5078366;28;20119;-73
2022/03/25 04:07:42;;;;;;;0.50;0.50;;;;;;;25.20;16.96;100643.91;5078468;28;20045;-73
2022/03/25 04:10:08;;;;;;;0.75;0.75;;;;;;;25.22;16.86;100638.97;5078388;28;20070;-71
2022/03/25 04:12:33;;;;;;;0.70;0.70;;;;;;;25.22;16.87;100644.44;5077874;28;20086;-72
2022/03/25 04:14:59;;;;;;;0.55;0.55;;;;;;;25.23;16.89;100640.63;5078269;28;20040;-72
2022/03/25 04:17:25;;;;;;;0.70;0.70;;;;;;;25.23;17.15;100637.88;5078675;28;20035;-73
2022/03/25 04:19:51;;;;;;;0.43;0.43;;;;;;;25.22;17.17;100641.72;5077761;28;20028;-73
2022/03/25 04:22:17;;;;;;;0.68;0.68;;;;;;;25.20;16.88;100630.25;5078361;28;20032;-73
2022/03/25 04:24:42;;;;;;;0.70;0.70;;;;;;;25.22;17.21;100619.03;5077469;28;20024;-73
2022/03/25 04:27:09;;;;;;;0.50;0.50;;;;;;;25.23;16.91;100618.75;5077390;28;20033;-72
2022/03/25 04:29:34;;;;;;;0.70;0.70;;;;;;;25.23;17.10;100618.75;5077070;28;20024;-73
2022/03/25 04:32:00;;;;;;;0.60;0.60;;;;;;;25.23;16.88;100624.22;5076690;28;20035;-73
2022/03/25 04:34:25;;;;;;;1.00;0.70;;;;;;;25.23;17.02;100624.22;5076742;28;20409;-72
2022/03/25 04:36:50;;;;;;;0.80;0.80;;;;;;;25.24;17.11;100619.56;5077365;28;20455;-72
2022/03/25 04:39:16;;;;;;;1.98;0.70;;;;;;;25.24;17.14;100620.38;5077316;28;20035;-72
2022/03/25 04:41:41;;;;;;;0.60;0.60;;;;;;;25.24;17.23;100614.91;5077723;28;20027;-73
2022/03/25 04:44:07;;;;;;;0.70;0.70;;;;;;;25.25;17.07;100619.31;5077114;28;20028;-73
2022/03/25 04:46:34;;;;;;;0.60;0.60;;;;;;;25.23;17.31;100605.06;5077029;28;20032;-73
2022/03/25 04:49:00;;;;;;;0.80;0.80;;;;;;;25.23;17.33;100602.34;5076511;28;20056;-74
2022/03/25 04:51:25;;;;;;;0.80;0.80;;;;;;;25.26;17.08;100601.78;5076355;28;20375;-73
2022/03/25 04:53:51;;;;;;;0.80;0.80;;;;;;;25.25;17.21;100600.16;5076722;28;20024;-73
2022/03/25 04:56:18;;;;;;;0.70;0.70;;;;;;;25.24;17.21;100582.06;5076310;28;20024;-73
2022/03/25 04:58:44;;;;;;;0.75;0.75;;;;;;;25.27;17.19;100580.75;5075906;28;20063;-73
2022/03/25 05:01:09;;;;;;;0.57;0.57;;;;;;;25.27;17.25;100578.81;5076033;28;20059;-73
2022/03/25 05:03:35;;;;;;;0.80;0.80;;;;;;;25.21;17.13;100577.16;5076672;28;20078;-73
2022/03/25 05:06:00;;;;;;;0.60;0.60;;;;;;;25.20;17.47;100561.88;5075391;28;20024;-73
2022/03/25 05:08:25;;;;;;;0.52;0.52;;;;;;;25.26;17.46;100563.50;5039247;28;20029;-73
2022/03/25 05:10:51;;;;;;;0.70;0.70;;;;;;;25.20;17.40;100544.63;5055207;28;20025;-72
2022/03/25 05:13:16;;;;;;;0.70;0.70;;;;;;;25.28;17.45;100550.38;5055080;28;20430;-72
2022/03/25 05:15:42;;;;;;;0.70;0.60;;;;;;;25.29;17.63;100553.91;5055147;28;20021;-72
2022/03/25 05:18:07;;;;;;;0.88;0.80;;;;;;;25.32;17.78;100541.59;5058146;28;20021;-74
2022/03/25 05:20:33;;;;;;;0.98;0.70;;;;;;;25.34;17.81;100536.66;5064116;28;20032;-74
2022/03/25 05:22:58;;;;;;;2.40;0.70;;;;;;;25.36;17.90;100539.94;5059007;28;20058;-73
2022/03/25 05:25:24;;;;;;;0.60;0.60;;;;;;;25.34;17.56;100537.47;5054926;28;20024;-73
2022/03/25 05:27:54;;;;;;;0.50;0.50;;;;;;;25.37;17.53;100541.53;5054744;28;20029;-74
2022/03/25 05:30:32;;;;;;;0.70;0.70;;;;;;;25.36;17.57;100534.47;5055336;28;20375;-73
2022/03/25 05:32:58;;;;;;;0.60;0.60;;;;;;;25.29;17.45;100510.97;5055302;28;20359;-72
2022/03/25 05:35:26;;;;;;;2.20;0.68;;;;;;;25.37;17.71;100527.88;5055829;28;20031;-72
2022/03/25 05:37:52;;;;;;;0.85;0.65;;;;;;;25.37;18.10;100517.78;5055489;28;20036;-75
2022/03/25 05:40:19;;;;;;;0.75;0.75;;;;;;;25.39;17.95;100522.94;5057858;28;20025;-73
2022/03/25 05:42:44;;;;;;;0.93;0.60;;;;;;;25.40;17.83;100524.56;5060297;28;20442;-73
2022/03/25 05:45:10;;;;;;;0.70;0.70;;;;;;;25.41;18.14;100516.09;5059921;28;20048;-73
2022/03/25 05:47:35;;;;;;;0.80;0.80;;;;;;;25.42;18.13;100520.47;5059327;28;20025;-72
2022/03/25 05:50:02;;;;;;;0.55;0.55;;;;;;;25.25;18.17;100496.22;5061988;28;20104;-73
2022/03/25 05:52:27;;;;;;;0.57;0.57;;;;;;;25.47;18.31;100519.59;5038683;28;20036;-73
2022/03/25 05:54:53;;;;;;;1.92;0.68;;;;;;;25.49;18.42;100511.91;5055624;28;20029;-73
2022/03/25 05:57:18;;;;;;;1.95;0.70;;;;;;;25.47;18.40;100519.59;5055243;28;20031;-73
2022/03/25 05:59:45;;;;;;;0.93;0.90;;;;;;;25.45;18.40;100514.41;5056311;28;20452;-73
2022/03/25 06:02:11;;;;;;;0.70;0.70;;;;;;;25.48;18.76;100502.09;5055968;28;20021;-72
2022/03/25 06:04:36;;;;;;;0.60;0.60;;;;;;;25.48;18.57;100499.34;5054317;28;20036;-73
2022/03/25 06:07:03;;;;;;;2.10;0.50;;;;;;;25.48;18.64;100493.88;5042756;28;20044;-73
2022/03/25 06:09:29;;;;;;;1.70;0.57;;;;;;;25.44;18.28;100488.16;5073527;28;20483;-73
2022/03/25 06:11:55;;;;;;;0.50;0.50;;;;;;;25.46;17.86;100491.44;5073610;28;20036;-74
2022/03/25 06:14:20;;;;;;;0.57;0.50;;;;;;;25.48;18.16;100477.47;5074000;28;20025;-73
2022/03/25 06:16:46;;;;;;;0.60;0.60;;;;;;;25.48;18.13;100478.28;5073882;28;20422;-73
2022/03/25 06:19:12;;;;;;;0.60;0.60;;;;;;;25.45;18.10;100478.84;5073287;28;20455;-73
2022/03/25 06:21:38;;;;;;;0.60;0.60;;;;;;;25.46;17.95;100480.50;5073411;28;20025;-73
2022/03/25 06:24:04;;;;;;;0.75;0.60;;;;;;;25.44;18.05;100465.44;5073604;28;20016;-73
2022/03/25 06:26:30;;;;;;;1.00;0.80;;;;;;;25.46;17.98;100457.78;5073473;28;20036;-73
2022/03/25 06:28:55;;;;;;;0.52;0.52;;;;;;;25.46;17.71;100452.31;5055615;28;20062;-72
2022/03/25 06:31:21;;;;;;;0.70;0.50;;;;;;;25.51;17.65;100444.06;5073552;28;20025;-73
2022/03/25 06:33:46;;;;;;;0.57;0.57;;;;;;;25.48;17.97;100439.16;5073531;28;20024;-73
2022/03/25 06:36:14;;;;;;;0.77;0.57;;;;;;;25.48;17.91;100441.91;5073249;28;20036;-73
2022/03/25 06:38:40;;;;;;;0.60;0.60;;;;;;;25.46;18.13;100435.91;5073567;28;20020;-73
2022/03/25 06:41:07;;;;;;;0.70;0.70;;;;;;;25.42;17.89;100427.47;5073229;28;20021;-73
2022/03/25 06:43:33;;;;;;;1.42;0.60;;;;;;;25.48;17.97;100422.75;5073608;28;20044;-73
2022/03/25 06:45:59;;;;;;;0.50;0.50;;;;;;;25.51;18.17;100421.34;5073489;28;20057;-74
2022/03/25 06:48:25;;;;;;;0.55;0.50;;;;;;;25.56;18.17;100413.09;5073824;28;20486;-73
2022/03/25 06:50:50;;;;;;;0.50;0.50;;;;;;;25.54;18.03;100407.91;5073687;28;20458;-74
2022/03/25 06:53:16;;;;;;;3.15;0.70;;;;;;;25.54;17.91;100404.34;5073827;28;20028;-72
2022/03/25 06:55:43;;;;;;;2.55;0.70;;;;;;;25.46;18.25;100400.34;5073845;28;20107;-74
2022/03/25 06:58:10;;;;;;;0.40;0.40;;;;;;;25.53;18.29;100389.88;5077865;28;20069;-73
2022/03/25 07:00:35;;;;;;;0.85;0.68;;;;;;;25.56;18.27;100392.03;5077606;28;20021;-73
2022/03/25 07:03:01;;;;;;;1.02;0.65;;;;;;;25.57;18.23;100385.44;5077133;28;20024;-73
2022/03/25 07:05:29;;;;;;;1.55;0.63;;;;;;;25.57;18.08;100388.19;5077120;28;20033;-73
2022/03/25 07:07:55;;;;;;;0.65;0.50;;;;;;;25.62;18.26;100385.41;5077260;28;20040;-73
2022/03/25 07:10:23;;;;;;;0.80;0.70;;;;;;;25.53;18.24;100381.66;5077056;28;20375;-73
2022/03/25 07:12:53;;;;;;;0.70;0.60;;;;;;;25.61;18.29;100388.41;5077768;28;20059;-74
2022/03/25 07:15:20;;;;;;;0.98;0.43;;;;;;;25.61;18.50;100383.78;5077648;28;20021;-73
2022/03/25 07:17:45;;;;;;;1.88;0.50;;;;;;;25.58;18.35;100376.16;5077209;28;20462;-73
2022/03/25 07:20:15;;;;;;;0.40;0.40;;;;;;;25.60;18.56;100368.44;5077523;28;20016;-73
2022/03/25 07:22:44;;;;;;;0.50;0.50;;;;;;;25.61;18.34;100372.00;5076760;28;20016;-73
2022/03/25 07:25:11;;;;;;;0.70;0.70;;;;;;;25.59;18.79;100360.53;5078135;28;20070;-73
2022/03/25 07:27:36;;;;;;;0.50;0.50;;;;;;;25.57;18.58;100349.88;5066539;28;20033;-73
2022/03/25 07:30:04;;;;;;;0.60;0.60;;;;;;;25.63;18.49;100345.16;5056814;28;20463;-73
2022/03/25 07:32:30;;;;;;;0.63;0.60;;;;;;;25.63;18.59;100346.00;5057508;28;20037;-72
2022/03/25 07:34:55;;;;;;;0.70;0.60;;;;;;;25.65;18.72;100335.56;5057201;28;20452;-73
2022/03/25 07:37:21;;;;;;;0.60;0.60;;;;;;;25.66;18.71;100331.72;5057349;28;20029;-74
2022/03/25 07:39:47;;;;;;;0.50;0.50;;;;;;;25.67;18.68;100325.13;5057243;28;20463;-73
2022/03/25 07:42:13;;;;;;;0.60;0.60;;;;;;;25.69;18.39;100319.38;5057325;28;20029;-73
2022/03/25 07:44:39;;;;;;;0.60;0.60;;;;;;;25.71;18.45;100311.69;5051002;28;20037;-74
2022/03/25 07:47:06;;;;;;;0.68;0.55;;;;;;;25.71;18.69;100308.16;5058239;28;20467;-72
2022/03/25 07:49:34;;;;;;;0.55;0.55;;;;;;;25.74;18.73;100299.34;5057190;28;20024;-72
2022/03/25 07:52:00;;;;;;;0.70;0.50;;;;;;;25.74;18.64;100291.94;5057224;28;20032;-73
2022/03/25 07:54:25;;;;;;;1.63;0.50;;;;;;;25.75;18.75;100295.50;5038900;28;20056;-74
2022/03/25 07:56:51;;;;;;;1.33;0.65;;;;;;;25.77;18.83;100294.13;5056816;28;20463;-73
2022/03/25 07:59:16;;;;;;;0.60;0.60;;;;;;;25.76;19.03;100294.41;5056864;28;20337;-73
2022/03/25 08:01:42;;;;;;;0.50;0.50;;;;;;;25.78;18.92;100286.72;5057642;28;20017;-72
2022/03/25 08:04:07;;;;;;;0.40;0.40;;;;;;;25.82;19.27;100293.25;5058483;28;20033;-73
2022/03/25 08:06:33;;;;;;;0.65;0.60;;;;;;;25.77;19.03;100285.09;5060965;28;20056;-72
2022/03/25 08:08:59;;;;;;;0.50;0.40;;;;;;;25.83;18.83;100284.72;5079013;28;20463;-73
2022/03/25 08:11:24;;;;;;;1.95;0.50;;;;;;;25.79;18.91;100271.94;5078516;28;20090;-73
2022/03/25 08:13:50;;;;;;;0.65;0.60;;;;;;;25.79;19.06;100274.66;5060468;28;20462;-73
2022/03/25 08:16:16;;;;;;;0.55;0.55;;;;;;;25.78;19.03;100262.88;5079911;28;20071;-73
2022/03/25 08:18:43;;;;;;;0.85;0.85;;;;;;;25.72;18.96;100266.81;5079253;28;20454;-72
2022/03/25 08:21:08;;;;;;;0.50;0.50;;;;;;;25.74;19.21;100258.31;5079697;28;20031;-75
2022/03/25 08:29:02;;;;;;;0.50;0.50;;;;;;;25.84;18.81;100252.69;5057243;28;20114;-75
2022/03/25 08:31:34;;;;;;;1.65;0.55;;;;;;;25.85;19.07;100257.88;5056729;28;20459;-75
2022/03/25 08:34:01;;;;;;;1.10;0.60;;;;;;;25.83;19.00;100251.06;5056651;28;20128;-75
2022/03/25 08:36:26;;;;;;;0.82;0.60;;;;;;;25.83;19.26;100248.31;5055563;28;20025;-75
2022/03/25 08:38:51;;;;;;;1.33;0.80;;;;;;;25.85;19.20;100246.09;5038597;28;20040;-75
2022/03/25 08:41:18;;;;;;;0.57;0.57;;;;;;;25.86;19.35;100237.59;5056243;28;20032;-74
2022/03/25 08:43:43;;;;;;;1.38;0.90;;;;;;;25.89;19.20;100236.22;5056658;28;20028;-74
2022/03/25 08:46:09;;;;;;;1.67;0.95;;;;;;;25.79;19.62;100234.41;5056463;28;20076;-76
2022/03/25 08:48:38;;;;;;;2.25;0.80;;;;;;;25.85;19.64;100230.50;5056777;28;20104;-73
2022/03/25 08:51:04;;;;;;;3.03;1.30;;;;;;;25.81;19.87;100228.66;5056253;28;20025;-75
2022/03/25 08:53:30;;;;;;;5.45;1.10;;;;;;;25.86;19.72;100218.44;5056180;28;20021;-74
2022/03/25 08:55:55;;;;;;;2.63;1.05;;;;;;;25.91;19.95;100216.75;5056317;28;20021;-75
2022/03/25 08:58:20;;;;;;;1.90;1.10;;;;;;;25.88;20.06;100207.19;5059742;28;20033;-74
2022/03/25 09:00:46;;;;;;;2.17;1.00;;;;;;;25.89;19.80;100202.53;5062452;28;20029;-75
2022/03/25 09:03:12;;;;;;;1.33;0.93;;;;;;;25.74;20.01;100195.34;5061243;28;20028;-73
2022/03/25 09:05:38;;;;;;;1.77;1.00;;;;;;;25.88;19.76;100192.69;5056469;28;20075;-75
2022/03/25 09:08:04;;;;;;;2.20;1.00;;;;;;;25.86;19.63;100193.00;5056440;28;20076;-74
2022/03/25 09:10:29;;;;;;;1.42;1.00;;;;;;;25.86;19.72;100177.38;5038665;28;20031;-74
2022/03/25 09:12:55;;;;;;;1.85;1.20;;;;;;;25.88;19.91;100179.00;5059750;28;20036;-74
2022/03/25 09:15:22;;;;;;;1.08;0.90;;;;;;;25.88;19.67;100179.00;5060817;28;20025;-74
2022/03/25 09:17:49;;;;;;;2.80;0.98;;;;;;;25.85;19.83;100170.28;5057797;28;20034;-73
2022/03/25 09:20:14;;;;;;;1.95;0.95;;;;;;;25.83;19.74;100171.69;5039498;28;20455;-72
2022/03/25 09:22:40;;;;;;;1.15;1.00;;;;;;;25.90;19.86;100161.16;5038304;28;20056;-74
2022/03/25 09:25:07;;;;;;;0.73;0.73;;;;;;;25.82;19.77;100170.88;5055312;28;20033;-72
2022/03/25 09:27:33;;;;;;;1.88;0.93;;;;;;;25.87;19.86;100150.81;5062390;28;20033;-74
2022/03/25 09:29:59;;;;;;;1.08;0.80;;;;;;;25.86;19.92;100151.94;5075291;28;20563;-73
2022/03/25 09:32:24;;;;;;;5.13;1.00;;;;;;;25.85;20.03;100158.50;5075183;28;20029;-73
2022/03/25 09:35:08;;;;;;;0.70;0.70;;;;;;;25.86;19.94;100147.25;5076458;28;20107;-73
2022/03/25 09:37:38;;;;;;;0.65;0.65;;;;;;;25.88;19.83;100146.16;5074890;28;20031;-73
2022/03/25 09:40:08;;;;;;;0.75;0.60;;;;;;;25.84;19.92;100146.75;5075914;28;20037;-73
2022/03/25 09:42:35;;;;;;;1.23;0.77;;;;;;;25.86;19.88;100151.94;5074740;28;20464;-73
2022/03/25 09:45:01;;;;;;;0.85;0.60;;;;;;;25.86;19.63;100139.06;5057300;28;20360;-73
2022/03/25 09:47:27;;;;;;;1.30;0.70;;;;;;;25.87;20.18;100131.66;5074846;28;20511;-72
2022/03/25 09:49:52;;;;;;;0.55;0.50;;;;;;;25.88;20.18;100138.75;5057172;28;20029;-72
2022/03/25 09:52:21;;;;;;;0.68;0.65;;;;;;;25.88;19.93;100127.00;5074786;28;20028;-72
2022/03/25 09:54:46;;;;;;;0.45;0.45;;;;;;;25.92;19.91;100128.84;5076725;28;20083;-73
2022/03/25 09:57:11;;;;;;;0.50;0.50;;;;;;;25.83;19.90;100117.75;5075346;28;20347;-72
2022/03/25 09:59:37;;;;;;;0.65;0.65;;;;;;;25.87;19.74;100117.97;5074954;28;20433;-73
2022/03/25 10:02:04;;;;;;;0.70;0.63;;;;;;;25.87;19.90;100117.97;5074480;28;20348;-74
2022/03/25 10:04:36;;;;;;;1.95;0.73;;;;;;;25.88;19.96;100114.13;5074885;28;20024;-74
2022/03/25 10:07:13;;;;;;;0.50;0.50;;;;;;;25.89;19.93;100103.97;5074553;28;20104;-74
2022/03/25 10:09:38;;;;;;;0.70;0.65;;;;;;;25.89;19.85;100106.72;5075330;28;20384;-74
2022/03/25 10:12:19;;;;;;;1.42;0.70;;;;;;;25.95;19.97;100100.09;5056433;28;20032;-73
2022/03/25 10:14:46;;;;;;;1.35;0.70;;;;;;;25.94;20.07;100085.59;5076432;28;20024;-73
2022/03/25 10:17:11;;;;;;;0.93;0.65;;;;;;;25.93;20.05;100092.16;5057931;28;20028;-72
2022/03/25 10:19:45;;;;;;;1.30;0.70;;;;;;;25.96;20.08;100080.63;5074286;28;20021;-73
2022/03/25 10:22:11;;;;;;;2.38;0.85;;;;;;;25.98;19.74;100075.66;5057523;28;20027;-73
2022/03/25 10:24:39;;;;;;;1.00;0.60;;;;;;;25.98;20.14;100070.19;5055925;28;20029;-74
2022/03/25 10:27:06;;;;;;;0.75;0.73;;;;;;;26.00;19.84;100067.16;5074248;28;20047;-74
2022/03/25 10:29:31;;;;;;;3.28;0.70;;;;;;;26.00;19.90;100065.22;5060079;28;20090;-73
2022/03/25 10:32:05;;;;;;;0.82;0.60;;;;;;;26.00;19.99;100054.28;5080990;28;20028;-73
2022/03/25 10:34:30;;;;;;;3.10;0.60;;;;;;;26.02;20.16;100048.50;5077785;28;20107;-73
2022/03/25 10:37:00;;;;;;;1.42;0.68;;;;;;;26.01;20.03;100046.91;5079536;28;20055;-78
2022/03/25 10:39:29;;;;;;;2.15;0.80;;;;;;;25.98;19.94;100042.81;5080685;28;20029;-77
2022/03/25 10:41:59;;;;;;;0.60;0.50;;;;;;;25.98;20.26;100036.53;5075105;28;20039;-77
2022/03/25 10:44:38;;;;;;;1.42;0.80;;;;;;;26.00;20.39;100035.09;5075578;28;20435;-79
2022/03/25 10:47:15;;;;;;;1.83;0.90;;;;;;;26.09;20.10;100021.53;5084882;28;20043;-78
2022/03/25 10:49:46;;;;;;;1.40;1.10;;;;;;;26.05;20.30;100013.13;5080622;28;20055;-77
2022/03/25 10:52:30;;;;;;;1.77;0.88;;;;;;;26.12;20.10;100009.19;5080106;28;20031;-77
2022/03/25 10:55:20;;;;;;;7.38;1.00;;;;;;;26.19;20.31;100023.28;5083116;28;20367;-79
2022/03/25 10:57:58;;;;;;;1.10;0.70;;;;;;;26.15;20.16;100009.41;5083456;28;20051;-77
2022/03/25 11:00:24;;;;;;;1.85;0.70;;;;;;;26.14;20.02;99998.75;5081554;28;20035;-78
2022/03/25 11:02:50;;;;;;;0.98;0.60;;;;;;;26.14;20.21;99993.25;5084301;28;20040;-78
2022/03/25 11:05:16;;;;;;;1.77;0.60;;;;;;;26.02;20.28;99972.63;5070148;28;20030;-79
2022/03/25 11:07:43;;;;;;;2.20;0.68;;;;;;;26.13;20.58;99977.94;5080819;28;20191;-79
2022/03/25 11:10:17;;;;;;;0.95;0.63;;;;;;;26.13;20.39;99969.72;5075442;28;20040;-78
2022/03/25 11:12:43;;;;;;;0.93;0.60;;;;;;;26.14;20.35;99963.94;5076942;28;20020;-76
2022/03/25 11:15:13;;;;;;;0.68;0.68;;;;;;;26.13;20.41;99956.03;5076779;28;20029;-78
2022/03/25 11:17:41;;;;;;;1.73;0.75;;;;;;;26.13;20.45;99956.03;5078595;28;20521;-78
2022/03/25 11:20:15;;;;;;;2.20;0.90;;;;;;;26.11;20.09;99953.59;5076565;28;20044;-78
2022/03/25 11:22:51;;;;;;;1.00;0.83;;;;;;;26.16;20.42;99945.28;5059456;28;20016;-75
2022/03/25 11:25:21;;;;;;;1.60;1.02;;;;;;;26.17;20.19;99935.16;5060572;28;20486;-74
2022/03/25 11:27:49;;;;;;;1.88;1.20;;;;;;;26.13;20.46;99931.38;5074535;28;20039;-76
2022/03/25 11:30:16;;;;;;;1.75;0.93;;;;;;;26.18;20.37;99917.59;5076357;28;20032;-76